Phaedo — WDF2955 — position and weather

sailwx.info

Track history (hours):
 
Tides and Currents Weather Stations Pressure Air Temp Water Temp Dewpoint Dewpoint Depression Visibility Wind Speed Wind Dir Waves Ship Positions

Phaedo

Owner: Thornburg, Lloyd, Santa Fe, NM. More information available from US FCC via Universal Licensing System and Coast Guard Vessel Documentation Center.

Last reported at 2017-Nov-14 06:11 UTC. Time now 2017-Nov-24 11:08 UTC.
Position N 32°03' W 118°17'.
Warning: this ship's position is 10 days out of date.

Type: Sailing vessel. MMSI: 367433840.

Date/timePositionNaut miles runAvg speedWind from/ knotsBaromVisibWave heightAir tempDewpointWater temp
2017-Nov-14 06:11N 32°03' W 118°17'2 9.7
2017-Nov-14 06:00N 32°05' W 118°17'2210.1
2017-Nov-14 03:50N 32°26' W 118°09'410.3
2017-Nov-14 03:29N 32°29' W 118°08'5 9.9
2017-Nov-14 03:00N 32°33' W 118°05'9 8.9
2017-Nov-14 02:02N 32°41' W 118°01'0 9.6
2017-Nov-14 01:59N 32°41' W 118°00'5 9.5
2017-Nov-14 01:30N 32°46' W 117°58'5 9.4
2017-Nov-14 01:00N 32°50' W 117°57'5 9.5
2017-Nov-14 00:30N 32°55' W 117°56'5 9.0
2017-Nov-14 00:00N 32°59' W 117°55'5 9.2
2017-Nov-13 23:30N 33°04' W 117°54'5 9.6
2017-Nov-13 23:00N 33°09' W 117°54'5 9.5
2017-Nov-13 22:30N 33°13' W 117°54'4 8.4
2017-Nov-13 22:00N 33°18' W 117°54'19 0.6
2017-Nov-12 13:08N 33°37' W 117°56'0 0.0
2017-Nov-12 12:59N 33°37' W 117°56'0 0.0
2017-Nov-12 12:29N 33°37' W 117°56'  
2017-Nov-07 21:12N 33°37' W 117°56'  
Track history (hours):
 
Tides and Currents Weather Stations Pressure Air Temp Water Temp Dewpoint Dewpoint Depression Visibility Wind Speed Wind Dir Waves Ship Positions

Phaedo

Owner: Thornburg, Lloyd, Santa Fe, NM. More information available from US FCC via Universal Licensing System and Coast Guard Vessel Documentation Center.

Last reported at 2017-Nov-14 06:11 UTC. Time now 2017-Nov-24 11:08 UTC.
Position N 32°03' W 118°17'.
Warning: this ship's position is 10 days out of date.

Type: Sailing vessel. MMSI: 367433840.

Date/timePositionNaut miles runAvg speedWind from/ knotsBaromVisibWave heightAir tempDewpointWater temp
2017-Nov-14 06:11N 32°03' W 118°17'2 9.7
2017-Nov-14 06:00N 32°05' W 118°17'2210.1
2017-Nov-14 03:50N 32°26' W 118°09'410.3
2017-Nov-14 03:29N 32°29' W 118°08'5 9.9
2017-Nov-14 03:00N 32°33' W 118°05'9 8.9
2017-Nov-14 02:02N 32°41' W 118°01'0 9.6
2017-Nov-14 01:59N 32°41' W 118°00'5 9.5
2017-Nov-14 01:30N 32°46' W 117°58'5 9.4
2017-Nov-14 01:00N 32°50' W 117°57'5 9.5
2017-Nov-14 00:30N 32°55' W 117°56'5 9.0
2017-Nov-14 00:00N 32°59' W 117°55'5 9.2
2017-Nov-13 23:30N 33°04' W 117°54'5 9.6
2017-Nov-13 23:00N 33°09' W 117°54'5 9.5
2017-Nov-13 22:30N 33°13' W 117°54'4 8.4
2017-Nov-13 22:00N 33°18' W 117°54'19 0.6
2017-Nov-12 13:08N 33°37' W 117°56'0 0.0
2017-Nov-12 12:59N 33°37' W 117°56'0 0.0
2017-Nov-12 12:29N 33°37' W 117°56'  
2017-Nov-07 21:12N 33°37' W 117°56'  

Dump ship's entire track history